createdAt,value
2023-01-20T10:13:36.464Z,6.45
2023-01-20T10:16:12.587Z,6.03
2023-01-20T10:18:56.831Z,5.72
2023-01-20T10:21:38.114Z,5.15
2023-01-20T10:24:14.222Z,5.88
2023-01-20T10:27:01.440Z,5.43
2023-01-20T10:29:38.319Z,5.45
2023-01-20T10:32:34.041Z,5.10
2023-01-20T10:35:11.125Z,5.70
2023-01-20T10:37:38.971Z,5.15
2023-01-20T10:40:45.061Z,5.40
2023-01-20T10:43:15.779Z,5.53
2023-01-20T10:46:22.759Z,5.07
2023-01-20T10:49:10.951Z,5.60
2023-01-20T10:51:51.626Z,5.78
2023-01-20T10:54:42.267Z,6.22
2023-01-20T10:57:14.370Z,5.72
2023-01-20T10:59:55.650Z,6.72
2023-01-20T11:02:28.314Z,5.07
2023-01-20T11:05:15.745Z,6.45
2023-01-20T11:07:44.720Z,4.75
2023-01-20T11:10:20.583Z,4.80
2023-01-20T11:12:55.063Z,6.10
2023-01-20T11:15:26.595Z,4.68
2023-01-20T11:18:22.110Z,5.10
2023-01-20T11:20:56.619Z,4.32
2023-01-20T11:23:39.063Z,5.00
2023-01-20T11:26:18.002Z,5.35
2023-01-20T11:29:00.332Z,5.63
2023-01-20T11:31:55.074Z,6.32
2023-01-20T11:34:30.144Z,6.50
2023-01-20T11:37:25.704Z,6.90
2023-01-20T11:40:02.190Z,7.65
2023-01-20T11:42:41.350Z,7.85
2023-01-20T11:45:34.824Z,9.23
2023-01-20T11:48:19.340Z,8.77
2023-01-20T11:50:50.460Z,10.50
2023-01-20T11:53:27.468Z,9.82
2023-01-20T11:56:02.315Z,10.68
2023-01-20T11:58:34.277Z,10.80
2023-01-20T12:01:06.152Z,9.63
2023-01-20T12:04:04.496Z,12.27
2023-01-20T12:06:36.571Z,10.57
2023-01-20T12:09:11.224Z,11.05
2023-01-20T12:11:50.643Z,9.63
2023-01-20T12:14:32.029Z,11.33
2023-01-20T12:17:21.986Z,10.13
2023-01-20T12:20:21.433Z,10.52
2023-01-20T12:23:01.465Z,11.00
2023-01-20T12:25:32.453Z,11.05
2023-01-20T12:28:22.393Z,13.07
2023-01-20T12:31:00.546Z,14.65
2023-01-20T12:33:35.529Z,15.60
2023-01-20T12:36:42.378Z,15.15
2023-01-20T12:39:41.371Z,14.75
2023-01-20T12:42:49.214Z,15.20
2023-01-20T12:45:56.041Z,15.40
2023-01-20T12:48:52.639Z,18.52
2023-01-20T12:51:40.249Z,21.90
2023-01-20T12:54:49.017Z,21.60
2023-01-20T12:57:43.890Z,23.77
2023-01-20T13:00:43.474Z,23.08
2023-01-20T13:03:42.062Z,23.30
2023-01-20T13:06:39.301Z,22.02
2023-01-20T13:09:41.218Z,19.05
2023-01-20T13:12:40.370Z,19.15
2023-01-20T13:15:28.522Z,20.17
2023-01-20T13:18:27.095Z,18.90
2023-01-20T13:20:55.742Z,18.60
2023-01-20T13:23:26.631Z,16.83
2023-01-20T13:25:55.397Z,17.52
2023-01-20T13:28:26.705Z,17.08
2023-01-20T13:30:55.986Z,15.90
2023-01-20T13:33:39.065Z,14.97
2023-01-20T13:36:21.803Z,15.25
2023-01-20T13:39:10.453Z,12.82
2023-01-20T13:41:51.090Z,13.32
2023-01-20T13:44:36.538Z,12.75
2023-01-20T13:47:07.603Z,11.05
2023-01-20T13:49:53.384Z,11.30
2023-01-20T13:53:00.174Z,11.85
2023-01-20T13:55:52.018Z,9.95
2023-01-20T13:58:34.353Z,9.57
2023-01-20T14:01:04.655Z,9.63
2023-01-20T14:03:35.279Z,8.57
2023-01-20T14:06:18.975Z,9.00
2023-01-20T14:08:48.748Z,8.38
2023-01-20T14:11:22.079Z,8.18
2023-01-20T14:13:55.635Z,7.80
2023-01-20T14:16:37.457Z,7.80
2023-01-20T14:19:28.082Z,6.50
2023-01-20T14:22:04.258Z,7.03
2023-01-20T14:24:36.951Z,6.90
2023-01-20T14:27:22.990Z,6.68
2023-01-20T14:29:52.483Z,7.03
2023-01-20T14:32:24.158Z,6.40
2023-01-20T14:34:52.642Z,6.80
2023-01-20T14:37:29.613Z,6.47
2023-01-20T14:39:58.998Z,6.05
2023-01-20T14:42:28.354Z,5.77
2023-01-20T14:44:57.421Z,5.05
2023-01-20T14:47:26.316Z,5.95
2023-01-20T14:49:54.798Z,5.47
2023-01-20T14:52:27.739Z,5.03
2023-01-20T14:54:59.091Z,5.28
2023-01-20T14:57:41.028Z,5.40
2023-01-20T15:00:26.425Z,4.90
2023-01-20T15:03:12.155Z,5.70
2023-01-20T15:05:42.864Z,5.18
2023-01-20T15:08:48.572Z,4.82
2023-01-20T15:11:28.495Z,4.50
2023-01-20T15:14:11.120Z,4.80
2023-01-20T15:16:47.590Z,4.57
2023-01-20T15:19:30.019Z,4.50
2023-01-20T15:22:17.126Z,4.40
2023-01-20T15:24:47.340Z,3.72
2023-01-20T15:27:31.544Z,4.22
2023-01-20T15:30:21.167Z,4.47
2023-01-20T15:32:49.714Z,4.13
2023-01-20T15:35:20.495Z,4.15
2023-01-20T15:37:47.685Z,4.28
2023-01-20T15:40:18.691Z,3.70
2023-01-20T15:42:46.875Z,3.63
2023-01-20T15:45:15.823Z,3.95
2023-01-20T15:47:45.021Z,3.35
2023-01-20T15:50:18.004Z,3.70
2023-01-20T15:52:45.369Z,3.35
2023-01-20T15:55:15.338Z,4.00
2023-01-20T15:57:43.276Z,3.72
2023-01-20T16:00:21.418Z,3.72
2023-01-20T16:02:48.590Z,3.85
2023-01-20T16:05:17.602Z,3.63
2023-01-20T16:07:47.120Z,3.30
2023-01-20T16:10:18.976Z,3.47
2023-01-20T16:12:48.406Z,3.60
2023-01-20T16:15:18.900Z,3.15
2023-01-20T16:17:46.562Z,3.42
2023-01-20T16:20:23.924Z,3.45
2023-01-20T16:22:51.949Z,3.03
2023-01-20T16:25:20.567Z,3.15
2023-01-20T16:27:47.673Z,3.22
2023-01-20T16:30:20.669Z,3.05
2023-01-20T16:32:48.467Z,3.47
2023-01-20T16:35:17.549Z,3.10
2023-01-20T16:37:46.516Z,2.60
2023-01-20T16:40:17.125Z,3.53
2023-01-20T16:42:44.443Z,3.17
2023-01-20T16:45:22.461Z,3.22
2023-01-20T16:47:50.099Z,3.13
2023-01-20T16:50:18.394Z,2.95
2023-01-20T16:52:45.777Z,2.60
2023-01-20T16:55:13.638Z,3.08
2023-01-20T16:57:40.827Z,2.70
2023-01-20T17:00:08.707Z,2.50
2023-01-20T17:02:35.880Z,3.28
2023-01-20T17:05:02.978Z,3.22
2023-01-20T17:07:30.087Z,3.10
2023-01-20T17:09:57.699Z,2.60
2023-01-20T17:12:24.793Z,2.78
2023-01-20T17:14:51.837Z,2.80
2023-01-20T17:17:18.928Z,3.20
2023-01-20T17:19:46.067Z,2.58
2023-01-20T17:22:13.221Z,2.47
2023-01-20T17:24:40.367Z,2.67
2023-01-20T17:27:07.564Z,2.95
2023-01-20T17:29:35.641Z,2.15
2023-01-20T17:32:02.807Z,2.45
2023-01-20T17:34:29.938Z,2.65
2023-01-20T17:36:57.019Z,3.05
2023-01-20T17:39:24.089Z,2.35
2023-01-20T17:41:51.189Z,2.53
2023-01-20T17:44:18.291Z,2.10
2023-01-20T17:46:47.755Z,3.03
2023-01-20T17:49:14.923Z,2.33
2023-01-20T17:51:42.802Z,2.75
2023-01-20T17:54:10.050Z,2.45
2023-01-20T17:56:37.149Z,2.30
2023-01-20T17:59:04.997Z,1.73
2023-01-20T18:01:33.578Z,3.08
2023-01-20T18:04:01.455Z,2.67
2023-01-20T18:06:29.251Z,2.42
2023-01-20T18:08:58.168Z,2.22
2023-01-20T18:11:27.251Z,2.50
2023-01-20T18:13:55.497Z,2.17
2023-01-20T18:16:27.758Z,3.13
2023-01-20T18:18:58.912Z,2.20
2023-01-20T18:21:30.078Z,2.50
2023-01-20T18:23:58.203Z,1.88
2023-01-20T18:26:32.251Z,2.05
2023-01-20T18:29:02.808Z,2.40
2023-01-20T18:31:32.314Z,2.30
2023-01-20T18:34:02.635Z,2.10
2023-01-20T18:36:35.815Z,2.38
2023-01-20T18:39:15.867Z,2.30
2023-01-20T18:41:43.661Z,1.73
2023-01-20T18:44:11.550Z,2.22
2023-01-20T18:46:39.081Z,1.88
2023-01-20T18:49:09.565Z,2.45
2023-01-20T18:51:37.359Z,1.90
2023-01-20T18:54:10.784Z,1.80
2023-01-20T18:56:38.033Z,2.33
2023-01-20T18:59:06.451Z,2.63
2023-01-20T19:01:36.279Z,2.28
2023-01-20T19:04:05.323Z,1.90
2023-01-20T19:06:35.734Z,1.98
2023-01-20T19:11:32.268Z,1.85
2023-01-20T19:13:59.936Z,2.22
2023-01-20T19:16:32.657Z,2.10
2023-01-20T19:19:02.544Z,2.42
2023-01-20T19:21:32.822Z,2.15
2023-01-20T19:24:06.201Z,2.20
2023-01-20T19:26:35.751Z,1.92
2023-01-20T19:29:06.125Z,1.87
2023-01-20T19:31:36.376Z,2.30
2023-01-20T19:34:03.720Z,2.30
2023-01-20T19:36:31.360Z,1.85
2023-01-20T19:38:58.794Z,1.85
2023-01-20T19:41:28.270Z,2.10
2023-01-20T19:43:57.733Z,2.23
2023-01-20T19:46:28.084Z,2.15
2023-01-20T19:51:23.465Z,1.60
2023-01-20T19:53:55.724Z,2.05
2023-01-20T19:56:23.347Z,2.22
2023-01-20T19:58:53.215Z,1.67
2023-01-20T20:01:26.106Z,2.20
2023-01-20T20:03:54.591Z,1.77
2023-01-20T20:06:25.604Z,1.65
2023-01-20T20:08:54.077Z,1.65
2023-01-20T20:11:21.221Z,1.75
2023-01-20T20:13:48.399Z,1.65
2023-01-20T20:16:15.772Z,1.80
2023-01-20T20:18:42.984Z,1.95
2023-01-20T20:21:10.147Z,1.90
2023-01-20T20:23:37.218Z,1.58
2023-01-20T20:26:04.359Z,1.83
2023-01-20T20:28:31.526Z,1.73
2023-01-20T20:31:05.861Z,1.92
2023-01-20T20:33:33.517Z,1.67
2023-01-20T20:36:00.713Z,1.83
2023-01-20T20:38:27.838Z,1.63
2023-01-20T20:41:01.341Z,1.80
2023-01-20T20:43:28.494Z,1.80
2023-01-20T20:46:00.422Z,1.63
2023-01-20T20:48:28.004Z,1.40
2023-01-20T20:50:55.299Z,1.60
2023-01-20T20:53:22.610Z,1.65
2023-01-20T20:55:53.970Z,1.88
2023-01-20T20:58:21.040Z,1.73
2023-01-20T21:00:51.287Z,1.30
2023-01-20T21:03:18.502Z,1.80
2023-01-20T21:05:49.596Z,1.40
2023-01-20T21:08:17.201Z,1.83
2023-01-20T21:10:44.298Z,1.63
2023-01-20T21:13:11.441Z,1.60
2023-01-20T21:15:38.888Z,2.08
2023-01-20T21:18:06.414Z,1.67
2023-01-20T21:20:34.012Z,1.88
2023-01-20T21:23:02.169Z,1.70
2023-01-20T21:25:29.336Z,1.60
2023-01-20T21:27:56.473Z,1.50
2023-01-20T21:30:23.680Z,1.40
2023-01-20T21:32:50.875Z,1.85
2023-01-20T21:35:18.008Z,1.95
2023-01-20T21:37:45.108Z,1.50
2023-01-20T21:40:12.805Z,2.03
2023-01-20T21:42:39.898Z,1.80
2023-01-20T21:45:07.606Z,2.15
2023-01-20T21:47:34.760Z,1.92
2023-01-20T21:50:21.722Z,1.83
2023-01-20T21:52:49.767Z,1.63
2023-01-20T21:55:24.256Z,1.50
2023-01-20T21:57:51.657Z,1.88
2023-01-20T22:00:19.494Z,1.40
2023-01-20T22:02:47.075Z,1.92
2023-01-20T22:05:14.287Z,1.65
2023-01-20T22:07:41.421Z,1.88
2023-01-20T22:10:09.591Z,1.75
2023-01-20T22:12:37.548Z,2.05
2023-01-20T22:15:05.217Z,1.50
2023-01-20T22:17:32.608Z,1.80
2023-01-20T22:19:59.917Z,2.03
2023-01-20T22:22:27.102Z,1.40
2023-01-20T22:24:54.341Z,1.60
2023-01-20T22:27:21.510Z,1.70
2023-01-20T22:29:49.175Z,1.55
2023-01-20T22:32:16.325Z,1.50
2023-01-20T22:34:43.461Z,1.20
2023-01-20T22:37:10.614Z,1.67
2023-01-20T22:39:37.708Z,1.73
2023-01-20T22:42:04.904Z,1.63
2023-01-20T22:44:32.028Z,1.50
2023-01-20T22:46:59.148Z,1.48
2023-01-20T22:49:26.495Z,1.45
2023-01-20T22:51:55.339Z,1.48
2023-01-20T22:54:22.563Z,1.63
2023-01-20T22:56:49.638Z,1.63
2023-01-20T22:59:16.766Z,1.88
2023-01-20T23:01:43.845Z,1.50
2023-01-20T23:04:11.256Z,1.67
2023-01-20T23:06:39.506Z,1.40
2023-01-20T23:09:10.913Z,1.75
2023-01-20T23:11:39.644Z,1.50
2023-01-20T23:14:07.540Z,1.67
2023-01-20T23:16:34.727Z,1.55
2023-01-20T23:19:01.881Z,1.65
2023-01-20T23:21:29.398Z,1.38
2023-01-20T23:23:56.494Z,1.48
2023-01-20T23:26:26.976Z,1.48
2023-01-20T23:31:23.672Z,1.40
2023-01-20T23:33:51.137Z,1.30
2023-01-20T23:36:21.346Z,1.27
2023-01-20T23:38:48.660Z,1.30
2023-01-20T23:41:16.293Z,1.15
2023-01-20T23:43:43.489Z,1.42
2023-01-20T23:46:11.021Z,1.40
2023-01-20T23:48:38.664Z,1.30
2023-01-20T23:51:07.049Z,1.20
2023-01-20T23:53:37.891Z,1.27
2023-01-20T23:56:08.158Z,1.58
2023-01-20T23:58:35.291Z,1.23
